Time;durP1;ratioP1;P1;durP2;ratioP2;P2;SDS_P1;SDS_P2;PMS_P1;PMS_P2;Temp;Humidity;BMP_temperature;BMP_pressure;BME280_temperature;BME280_humidity;BME280_pressure;Samples;Min_cycle;Max_cycle;Signal;HPM_P1;HPM_P2
2022/03/30 00:01:23;;;;;;;5.80;5.60;;;;;;;9.50;44.02;99653.25;5033075;28;20709;-63
2022/03/30 00:03:49;;;;;;;5.85;5.65;;;;;;;9.50;44.13;99656.72;5024707;28;20071;-64
2022/03/30 00:06:15;;;;;;;6.05;5.80;;;;;;;9.47;43.80;99662.38;5043750;28;20029;-62
2022/03/30 00:08:42;;;;;;;6.47;6.18;;;;;;;9.42;44.04;99643.63;5046566;28;20029;-61
2022/03/30 00:11:08;;;;;;;6.20;5.90;;;;;;;9.34;44.55;99655.16;5037471;28;20022;-61
2022/03/30 00:13:35;;;;;;;5.80;5.60;;;;;;;9.32;45.22;99659.78;5034518;28;20031;-63
2022/03/30 00:16:02;;;;;;;6.20;5.90;;;;;;;9.18;45.62;99657.19;5018922;28;20026;-63
2022/03/30 00:18:27;;;;;;;6.35;6.05;;;;;;;9.33;44.46;99660.63;5021282;28;20132;-63
2022/03/30 00:20:53;;;;;;;7.20;6.90;;;;;;;9.28;44.89;99668.31;5032568;28;20481;-62
2022/03/30 00:23:18;;;;;;;6.07;5.80;;;;;;;9.20;46.00;99669.25;5045991;28;20100;-62
2022/03/30 00:25:43;;;;;;;5.93;5.72;;;;;;;9.08;45.41;99674.19;5041901;28;20029;-61
2022/03/30 00:28:09;;;;;;;5.93;5.72;;;;;;;8.99;45.85;99664.72;5042303;28;20472;-63
2022/03/30 00:30:35;;;;;;;6.30;6.00;;;;;;;9.01;45.44;99673.28;5034135;28;20051;-62
2022/03/30 00:33:01;;;;;;;6.13;5.85;;;;;;;8.98;46.16;99670.22;5041631;28;20028;-63
2022/03/30 00:35:26;;;;;;;6.30;6.00;;;;;;;8.95;46.40;99674.03;5034077;28;20053;-63
2022/03/30 00:37:52;;;;;;;6.00;5.80;;;;;;;8.85;46.72;99678.78;5033780;28;20025;-62
2022/03/30 00:40:18;;;;;;;6.15;5.85;;;;;;;8.72;47.54;99674.16;5045023;28;20017;-62
2022/03/30 00:42:44;;;;;;;6.40;6.10;;;;;;;8.75;46.78;99672.97;5033764;28;20033;-61
2022/03/30 00:45:23;;;;;;;6.40;6.10;;;;;;;8.69;47.28;99669.25;5039222;28;20021;-62
2022/03/30 00:47:49;;;;;;;6.25;5.95;;;;;;;8.68;47.55;99672.06;5041409;28;20105;-62
2022/03/30 00:50:18;;;;;;;6.20;5.90;;;;;;;8.43;48.08;99687.38;5013796;28;20470;-63
2022/03/30 00:52:45;;;;;;;5.80;5.60;;;;;;;8.35;48.05;99677.69;5013971;28;20033;-63
2022/03/30 00:55:13;;;;;;;7.22;6.88;;;;;;;8.45;48.33;99680.91;5025386;28;20026;-62
2022/03/30 00:57:40;;;;;;;5.85;5.65;;;;;;;8.36;47.86;99674.06;5045461;28;20397;-63
2022/03/30 01:00:09;;;;;;;6.05;5.80;;;;;;;8.44;48.19;99681.06;5033562;28;20029;-62
2022/03/30 01:02:38;;;;;;;5.90;5.70;;;;;;;8.41;47.90;99678.81;5035950;28;20378;-61
2022/03/30 01:05:04;;;;;;;5.80;5.60;;;;;;;8.34;48.34;99673.38;5033723;28;20039;-62
2022/03/30 01:07:30;;;;;;;6.00;5.70;;;;;;;8.36;48.23;99678.53;5025365;28;20029;-61
2022/03/30 01:09:55;;;;;;;5.93;5.68;;;;;;;8.35;48.26;99675.06;5053157;28;20028;-63
2022/03/30 01:12:21;;;;;;;5.85;5.65;;;;;;;8.27;48.01;99673.28;5046523;28;20112;-61
2022/03/30 01:14:47;;;;;;;6.47;6.18;;;;;;;8.24;48.76;99664.91;5035610;28;20481;-62
2022/03/30 01:17:13;;;;;;;6.10;5.80;;;;;;;8.27;48.77;99670.66;5035560;28;20047;-61
2022/03/30 01:19:38;;;;;;;6.18;5.88;;;;;;;8.20;48.25;99664.44;5033604;28;20025;-63
2022/03/30 01:22:07;;;;;;;5.70;5.50;;;;;;;8.17;48.11;99659.53;5033156;28;20036;-62
2022/03/30 01:24:35;;;;;;;5.80;5.60;;;;;;;8.21;48.41;99662.63;5033374;28;20080;-62
2022/03/30 01:27:00;;;;;;;5.95;5.65;;;;;;;8.16;48.50;99652.59;5021190;28;20103;-61
2022/03/30 01:32:26;;;;;;;6.25;5.95;;;;;;;8.15;48.27;99660.69;5033951;28;20523;-62
2022/03/30 01:34:52;;;;;;;6.10;5.80;;;;;;;8.21;47.71;99662.63;5033831;28;20480;-62
2022/03/30 01:37:18;;;;;;;6.07;5.80;;;;;;;8.13;47.91;99658.22;5033704;28;20076;-61
2022/03/30 01:39:44;;;;;;;5.75;5.55;;;;;;;8.13;48.09;99662.69;5033200;28;20029;-62
2022/03/30 01:42:10;;;;;;;6.05;5.80;;;;;;;8.09;47.98;99659.63;5033122;28;20033;-62
2022/03/30 01:44:36;;;;;;;5.82;5.63;;;;;;;8.08;48.43;99665.91;5026590;28;20032;-62
2022/03/30 01:47:02;;;;;;;5.70;5.50;;;;;;;8.00;48.25;99647.47;5040220;28;20037;-62
2022/03/30 01:49:27;;;;;;;5.90;5.70;;;;;;;8.07;48.93;99651.03;5032432;28;20028;-61
2022/03/30 01:51:55;;;;;;;6.50;6.20;;;;;;;8.06;48.54;99652.03;5051632;28;20024;-62
2022/03/30 01:54:23;;;;;;;6.10;5.80;;;;;;;8.06;48.93;99656.50;5037655;28;20022;-61
2022/03/30 01:56:50;;;;;;;5.80;5.60;;;;;;;8.00;49.39;99650.91;5028305;28;20046;-61
2022/03/30 01:59:16;;;;;;;5.68;5.47;;;;;;;7.98;49.14;99658.22;5012745;28;20026;-62
2022/03/30 02:01:42;;;;;;;6.45;6.15;;;;;;;7.92;49.52;99668.66;5027090;28;20021;-62
2022/03/30 02:04:08;;;;;;;5.90;5.70;;;;;;;7.81;49.96;99654.09;5039042;28;20068;-62
2022/03/30 02:06:35;;;;;;;5.80;5.60;;;;;;;7.92;49.05;99660.75;5032405;28;20060;-63
2022/03/30 02:09:00;;;;;;;6.10;5.80;;;;;;;7.91;49.13;99651.19;5036212;28;20025;-62
2022/03/30 02:11:26;;;;;;;5.90;5.70;;;;;;;7.89;49.44;99661.94;5031281;28;20034;-62
2022/03/30 02:13:55;;;;;;;5.88;5.68;;;;;;;7.79;49.92;99658.72;5032229;28;20477;-62
2022/03/30 02:16:21;;;;;;;6.05;5.75;;;;;;;7.69;50.47;99652.84;5032115;28;20366;-62
2022/03/30 02:18:47;;;;;;;6.03;5.75;;;;;;;7.73;49.60;99660.25;5036552;28;20036;-62
2022/03/30 02:21:13;;;;;;;6.05;5.75;;;;;;;7.71;49.96;99662.25;5043258;28;20094;-62
2022/03/30 02:23:39;;;;;;;6.72;6.43;;;;;;;7.72;50.33;99665.72;5032310;28;20064;-63
2022/03/30 02:26:06;;;;;;;5.70;5.50;;;;;;;7.69;50.01;99666.06;5023799;28;20049;-63
2022/03/30 02:28:32;;;;;;;6.22;5.95;;;;;;;7.63;50.35;99654.38;5046855;28;20401;-62
2022/03/30 02:30:58;;;;;;;5.88;5.68;;;;;;;7.71;50.41;99658.78;5051899;28;20027;-61
2022/03/30 02:33:24;;;;;;;5.72;5.53;;;;;;;7.81;49.77;99666.47;5047837;28;20112;-60
2022/03/30 02:35:50;;;;;;;6.07;5.78;;;;;;;7.76;49.73;99672.25;5032125;28;20028;-62
2022/03/30 02:38:16;;;;;;;6.35;6.05;;;;;;;7.73;50.28;99673.44;5042319;28;20040;-62
2022/03/30 02:40:41;;;;;;;5.72;5.53;;;;;;;7.73;50.87;99670.00;5031861;28;20104;-62
2022/03/30 02:43:07;;;;;;;5.80;5.60;;;;;;;7.62;50.87;99659.84;5047653;28;20029;-62
2022/03/30 02:45:33;;;;;;;5.63;5.43;;;;;;;7.61;50.86;99656.38;5047371;28;20120;-63
2022/03/30 02:50:44;;;;;;;6.05;5.78;;;;;;;7.65;50.76;99676.16;5031705;28;20029;-62
2022/03/30 02:53:10;;;;;;;5.78;5.57;;;;;;;7.50;51.08;99667.38;5032698;28;20041;-62
2022/03/30 02:55:35;;;;;;;6.40;6.10;;;;;;;7.62;51.39;99676.50;5049374;28;20029;-62
2022/03/30 02:58:01;;;;;;;6.10;5.80;;;;;;;7.61;51.16;99679.31;5045567;28;20466;-62
2022/03/30 03:00:27;;;;;;;6.22;5.93;;;;;;;7.56;51.66;99684.28;5031666;28;20021;-62
2022/03/30 03:02:53;;;;;;;5.90;5.65;;;;;;;7.53;52.06;99676.75;5037273;28;20482;-62
2022/03/30 03:05:18;;;;;;;5.80;5.60;;;;;;;7.53;51.80;99676.75;5011973;28;20032;-63
2022/03/30 03:07:44;;;;;;;6.40;6.10;;;;;;;7.55;51.91;99680.00;5021663;28;20035;-61
2022/03/30 03:10:09;;;;;;;6.13;5.82;;;;;;;7.50;51.55;99679.75;5041990;28;20043;-62
2022/03/30 03:12:35;;;;;;;6.32;6.03;;;;;;;7.49;52.40;99689.44;5051352;28;20357;-63
2022/03/30 03:15:00;;;;;;;6.53;6.22;;;;;;;7.52;52.17;99681.19;5040652;28;20051;-63
2022/03/30 03:17:26;;;;;;;5.97;5.70;;;;;;;7.52;51.94;99685.66;5055634;28;20029;-62
2022/03/30 03:19:51;;;;;;;5.82;5.63;;;;;;;7.50;52.10;99679.75;5036032;28;20076;-62
2022/03/30 03:22:17;;;;;;;6.07;5.78;;;;;;;7.37;52.95;99677.66;5027764;28;20048;-62
2022/03/30 03:24:42;;;;;;;5.90;5.70;;;;;;;7.40;53.58;99679.94;5043663;28;20028;-63
2022/03/30 03:27:08;;;;;;;6.20;5.90;;;;;;;7.46;52.35;99685.34;5037598;28;20029;-62
2022/03/30 03:29:33;;;;;;;5.85;5.65;;;;;;;7.42;52.51;99675.34;5035915;28;20108;-63
2022/03/30 03:31:59;;;;;;;6.38;6.07;;;;;;;7.37;53.20;99690.88;5033812;28;20033;-62
2022/03/30 03:34:24;;;;;;;6.10;5.80;;;;;;;7.33;52.74;99692.19;5054542;28;20021;-62
2022/03/30 03:36:50;;;;;;;6.30;6.00;;;;;;;7.34;53.00;99692.00;5036965;28;20026;-61
2022/03/30 03:39:16;;;;;;;5.65;5.45;;;;;;;7.25;53.54;99692.25;5046860;28;20037;-62
2022/03/30 03:41:43;;;;;;;5.70;5.50;;;;;;;7.28;53.68;99697.19;5028602;28;20067;-62
2022/03/30 03:44:09;;;;;;;6.13;5.82;;;;;;;7.24;52.92;99686.16;5053673;28;20420;-62
2022/03/30 03:46:35;;;;;;;5.78;5.57;;;;;;;7.26;53.89;99689.44;5049312;28;20131;-63
2022/03/30 03:49:00;;;;;;;6.60;6.30;;;;;;;7.25;54.02;99693.06;5036031;28;20033;-62
2022/03/30 03:51:26;;;;;;;6.10;5.80;;;;;;;7.28;53.73;99690.09;5048667;28;20148;-63
2022/03/30 03:53:51;;;;;;;6.05;5.75;;;;;;;7.22;53.79;99677.59;5047531;28;20058;-62
2022/03/30 03:56:17;;;;;;;6.50;6.20;;;;;;;7.24;54.02;99678.22;5048619;28;20056;-62
2022/03/30 03:58:42;;;;;;;6.43;6.13;;;;;;;7.28;53.69;99668.19;5048547;28;20032;-62
2022/03/30 04:01:08;;;;;;;6.25;5.95;;;;;;;7.37;53.69;99667.13;5032173;28;20036;-62
2022/03/30 04:03:33;;;;;;;6.47;6.18;;;;;;;7.40;53.78;99678.13;5037691;28;20029;-62
2022/03/30 04:05:59;;;;;;;6.10;5.80;;;;;;;7.36;54.32;99683.94;5042757;28;20056;-62
2022/03/30 04:08:24;;;;;;;6.75;6.45;;;;;;;7.43;54.35;99669.06;5046781;28;20112;-63
2022/03/30 04:10:50;;;;;;;5.97;5.72;;;;;;;7.57;53.52;99675.41;5053845;28;20151;-61
2022/03/30 04:13:15;;;;;;;6.60;6.30;;;;;;;7.72;53.22;99686.84;5041036;28;20033;-61
2022/03/30 04:15:41;;;;;;;6.45;6.15;;;;;;;7.71;53.25;99678.09;5046951;28;20017;-62
2022/03/30 04:18:09;;;;;;;6.95;6.65;;;;;;;7.90;53.06;99684.69;5042294;28;20095;-63
2022/03/30 04:20:36;;;;;;;6.63;6.32;;;;;;;8.09;52.23;99683.38;5036336;28;20425;-62
2022/03/30 04:23:01;;;;;;;6.03;5.75;;;;;;;8.21;52.21;99686.41;5041338;28;20123;-63
2022/03/30 04:25:27;;;;;;;6.35;6.05;;;;;;;8.47;51.93;99686.84;5030383;28;20167;-62
2022/03/30 04:27:54;;;;;;;6.20;5.90;;;;;;;8.78;50.90;99689.28;5035026;28;20057;-62
2022/03/30 04:30:21;;;;;;;6.22;5.93;;;;;;;9.11;49.93;99689.72;5027246;28;20059;-62
2022/03/30 04:32:47;;;;;;;6.57;6.28;;;;;;;9.55;48.59;99695.88;5044593;28;20033;-61
2022/03/30 04:35:14;;;;;;;7.40;7.05;;;;;;;10.14;46.77;99703.56;5043823;28;20060;-62
2022/03/30 04:37:40;;;;;;;7.10;6.80;;;;;;;10.87;45.40;99696.91;5031588;28;20029;-62
2022/03/30 04:40:07;;;;;;;7.00;6.70;;;;;;;11.75;42.96;99700.47;5025948;28;20029;-61
2022/03/30 04:42:33;;;;;;;6.85;6.55;;;;;;;12.57;41.19;99703.75;5033247;28;20025;-61
2022/03/30 04:44:59;;;;;;;7.50;7.10;;;;;;;12.81;40.02;99703.06;5034255;28;20602;-61
2022/03/30 04:47:24;;;;;;;6.50;6.20;;;;;;;13.41;39.02;99694.84;5033398;28;20025;-62
2022/03/30 04:49:50;;;;;;;6.70;6.40;;;;;;;14.35;37.30;99705.44;5024653;28;20024;-62
2022/03/30 04:52:16;;;;;;;7.22;6.93;;;;;;;15.04;36.46;99700.84;5033471;28;20490;-62
2022/03/30 04:54:41;;;;;;;6.95;6.65;;;;;;;15.66;34.66;99698.03;5033090;28;20087;-66
2022/03/30 04:57:07;;;;;;;6.68;6.38;;;;;;;15.32;35.51;99702.16;5032657;28;20057;-63
2022/03/30 04:59:32;;;;;;;7.50;7.20;;;;;;;14.71;36.04;99711.09;5032522;28;20140;-64
2022/03/30 05:01:59;;;;;;;6.60;6.30;;;;;;;14.91;36.61;99701.84;5039063;28;20029;-64
2022/03/30 05:04:24;;;;;;;6.80;6.50;;;;;;;14.73;36.58;99707.16;5034369;28;20067;-63
2022/03/30 05:06:49;;;;;;;6.55;6.25;;;;;;;15.64;34.91;99697.41;5038952;28;20423;-63
2022/03/30 05:09:15;;;;;;;7.00;6.70;;;;;;;15.19;35.40;99695.91;5036159;28;20483;-62
2022/03/30 05:11:40;;;;;;;6.68;6.38;;;;;;;13.85;37.54;99712.63;5032999;28;20032;-64
2022/03/30 05:14:06;;;;;;;6.95;6.65;;;;;;;13.06;39.26;99705.00;5033071;28;20025;-63
2022/03/30 05:16:33;;;;;;;6.80;6.50;;;;;;;12.91;40.36;99711.41;5049634;28;20495;-65
2022/03/30 05:19:00;;;;;;;6.90;6.60;;;;;;;13.06;40.11;99707.69;5039167;28;20112;-64
2022/03/30 05:21:26;;;;;;;7.22;6.93;;;;;;;12.39;41.42;99707.84;5036236;28;20018;-63
2022/03/30 05:23:52;;;;;;;7.85;7.55;;;;;;;12.54;41.51;99704.94;5032413;28;20021;-64
2022/03/30 05:26:17;;;;;;;6.80;6.50;;;;;;;12.51;41.64;99702.72;5032917;28;20100;-63
2022/03/30 05:28:43;;;;;;;6.75;6.45;;;;;;;12.38;42.02;99703.53;5032887;28;20113;-64
2022/03/30 05:31:09;;;;;;;6.60;6.30;;;;;;;12.32;42.18;99715.00;5031971;28;20033;-63
2022/03/30 05:33:35;;;;;;;6.63;6.32;;;;;;;12.25;42.79;99708.88;5037582;28;20455;-64
2022/03/30 05:36:01;;;;;;;7.10;6.80;;;;;;;12.28;42.61;99700.50;5039430;28;20052;-64
2022/03/30 05:38:27;;;;;;;6.70;6.40;;;;;;;12.18;42.76;99705.41;5035728;28;20025;-63
2022/03/30 05:40:52;;;;;;;8.60;8.20;;;;;;;12.18;42.98;99710.72;5027863;28;20644;-65
2022/03/30 05:43:18;;;;;;;6.70;6.40;;;;;;;12.30;42.79;99705.59;5034865;28;20057;-66
2022/03/30 05:45:43;;;;;;;6.43;6.13;;;;;;;12.17;42.84;99695.78;5028524;28;20507;-66
2022/03/30 05:48:09;;;;;;;6.22;5.97;;;;;;;12.20;43.39;99707.88;5038259;28;20091;-66
2022/03/30 05:50:35;;;;;;;6.88;6.57;;;;;;;12.09;43.59;99701.31;5043489;28;20468;-66
2022/03/30 05:53:01;;;;;;;7.28;6.97;;;;;;;12.16;43.86;99708.28;5030767;28;20033;-66
2022/03/30 05:55:26;;;;;;;6.50;6.20;;;;;;;12.08;44.04;99711.13;5030152;28;20033;-66
2022/03/30 05:57:52;;;;;;;6.35;6.05;;;;;;;12.17;43.93;99704.56;5033769;28;20049;-65
2022/03/30 06:00:19;;;;;;;6.90;6.60;;;;;;;12.27;43.90;99706.84;5026938;28;20017;-65
2022/03/30 06:02:44;;;;;;;6.50;6.20;;;;;;;12.36;43.23;99707.44;5038477;28;20033;-65
2022/03/30 06:05:10;;;;;;;7.13;6.82;;;;;;;12.41;43.03;99711.13;5032266;28;20034;-66
2022/03/30 06:07:36;;;;;;;6.47;6.18;;;;;;;12.47;42.63;99701.47;5038982;28;20030;-66
2022/03/30 06:10:01;;;;;;;6.47;6.18;;;;;;;12.33;42.72;99699.88;5032281;28;20021;-66
2022/03/30 06:12:27;;;;;;;6.72;6.43;;;;;;;12.49;42.86;99702.13;5037017;28;20025;-66
2022/03/30 06:14:53;;;;;;;6.50;6.20;;;;;;;12.53;43.03;99699.84;5063698;28;20025;-66
2022/03/30 06:17:20;;;;;;;6.90;6.60;;;;;;;12.60;42.64;99700.66;5029609;28;20388;-66
2022/03/30 06:19:48;;;;;;;6.30;6.00;;;;;;;12.64;42.77;99707.22;5030416;28;20575;-66
2022/03/30 06:22:14;;;;;;;6.82;6.53;;;;;;;12.75;42.69;99698.56;5033832;28;20491;-66
2022/03/30 06:24:42;;;;;;;6.50;6.20;;;;;;;12.72;42.61;99694.50;5033059;28;20041;-66
2022/03/30 06:27:09;;;;;;;6.50;6.20;;;;;;;12.72;42.46;99691.81;5026857;28;20029;-66
2022/03/30 06:29:36;;;;;;;6.32;6.03;;;;;;;12.80;42.72;99690.78;5026641;28;20068;-64
2022/03/30 06:32:03;;;;;;;6.30;6.00;;;;;;;12.76;42.68;99689.56;5032101;28;20056;-64
2022/03/30 06:34:28;;;;;;;6.90;6.60;;;;;;;12.87;42.69;99696.91;5014371;28;20108;-67
2022/03/30 06:36:54;;;;;;;7.07;6.78;;;;;;;12.94;42.88;99678.25;5029960;28;20124;-64
2022/03/30 06:39:20;;;;;;;6.70;6.40;;;;;;;13.01;42.71;99697.69;5029797;28;20036;-64
2022/03/30 06:41:45;;;;;;;6.60;6.30;;;;;;;13.07;42.44;99696.00;5026547;28;20370;-64
2022/03/30 06:44:11;;;;;;;6.57;6.28;;;;;;;13.04;42.41;99701.75;5030174;28;20074;-65
2022/03/30 06:46:38;;;;;;;6.60;6.30;;;;;;;13.31;42.35;99699.84;5030924;28;20040;-66
2022/03/30 06:49:09;;;;;;;6.75;6.45;;;;;;;13.30;42.25;99677.72;5033607;28;20151;-66
2022/03/30 06:51:36;;;;;;;6.53;6.22;;;;;;;13.52;41.54;99700.31;5030954;28;20029;-66
2022/03/30 06:54:02;;;;;;;6.78;6.47;;;;;;;13.62;41.38;99702.53;5030565;28;20024;-66
2022/03/30 06:56:27;;;;;;;7.00;6.70;;;;;;;13.70;41.44;99709.44;5029156;28;20420;-65
2022/03/30 06:58:53;;;;;;;6.80;6.50;;;;;;;13.60;41.43;99699.25;5034196;28;20024;-66
2022/03/30 07:01:19;;;;;;;6.70;6.40;;;;;;;13.83;40.40;99680.84;5034718;28;20025;-66
2022/03/30 07:03:44;;;;;;;6.60;6.30;;;;;;;14.10;40.42;99709.97;5040605;28;20495;-66
2022/03/30 07:06:10;;;;;;;6.95;6.65;;;;;;;14.12;40.76;99707.09;5039952;28;20079;-65
2022/03/30 07:11:27;;;;;;;6.60;6.30;;;;;;;14.37;40.20;99703.38;5021913;28;20056;-66
2022/03/30 07:13:52;;;;;;;6.40;6.10;;;;;;;14.63;40.22;99698.84;5040008;28;20025;-65
2022/03/30 07:16:19;;;;;;;6.50;6.20;;;;;;;15.08;39.02;99695.88;5039376;28;20503;-66
2022/03/30 07:18:44;;;;;;;6.13;5.93;;;;;;;15.29;38.70;99697.25;5028516;28;20026;-66
2022/03/30 07:21:10;;;;;;;6.50;6.20;;;;;;;15.61;38.37;99693.34;5031365;28;20098;-66
2022/03/30 07:23:35;;;;;;;6.55;6.25;;;;;;;16.10;37.80;99693.22;5025025;28;20547;-66
2022/03/30 07:26:01;;;;;;;6.70;6.40;;;;;;;16.34;37.33;99694.03;5031398;28;20060;-66
2022/03/30 07:28:27;;;;;;;6.97;6.68;;;;;;;16.27;37.50;99692.31;5030938;28;20086;-66
2022/03/30 07:30:53;;;;;;;7.00;6.70;;;;;;;16.38;37.47;99688.00;5029304;28;20082;-65
2022/03/30 07:33:20;;;;;;;7.10;6.80;;;;;;;16.67;37.14;99685.41;5027018;28;20171;-66
2022/03/30 07:35:46;;;;;;;6.90;6.60;;;;;;;16.38;37.51;99689.84;5026299;28;20024;-66
2022/03/30 07:38:18;;;;;;;6.80;6.50;;;;;;;16.68;37.11;99698.59;5025397;28;20504;-66
2022/03/30 07:40:45;;;;;;;6.68;6.38;;;;;;;16.93;36.95;99689.47;5029904;28;20034;-67
2022/03/30 07:43:12;;;;;;;6.70;6.40;;;;;;;16.89;36.90;99693.66;5046672;28;20480;-67
2022/03/30 07:45:38;;;;;;;6.78;6.47;;;;;;;16.89;36.94;99697.16;5036799;28;20036;-67
2022/03/30 07:48:05;;;;;;;6.70;6.40;;;;;;;17.21;36.68;99700.25;5037591;28;20033;-65
2022/03/30 07:50:31;;;;;;;6.60;6.30;;;;;;;17.17;36.70;99704.44;5039053;28;20401;-66
2022/03/30 07:52:57;;;;;;;7.00;6.70;;;;;;;17.36;36.44;99695.16;5032646;28;20033;-66
2022/03/30 07:55:22;;;;;;;7.00;6.70;;;;;;;18.26;34.65;99690.81;5029840;28;20029;-67
2022/03/30 07:57:48;;;;;;;7.40;7.10;;;;;;;18.43;34.80;99696.16;5033658;28;20092;-67
2022/03/30 08:00:16;;;;;;;6.70;6.40;;;;;;;17.79;35.82;99701.88;5028737;28;20075;-66
2022/03/30 08:02:45;;;;;;;7.20;6.90;;;;;;;18.27;35.24;99705.06;5033202;28;20025;-67
2022/03/30 08:05:13;;;;;;;8.35;7.95;;;;;;;18.53;34.50;99704.38;5035180;28;20453;-66
2022/03/30 08:07:43;;;;;;;6.90;6.60;;;;;;;18.91;33.63;99695.53;5037584;28;20110;-67
2022/03/30 08:10:10;;;;;;;6.80;6.50;;;;;;;19.03;33.09;99703.47;5032825;28;20373;-66
2022/03/30 08:12:37;;;;;;;6.88;6.57;;;;;;;19.12;33.13;99695.78;5033853;28;20029;-67
2022/03/30 08:15:03;;;;;;;7.35;7.05;;;;;;;19.31;33.36;99683.63;5031441;28;20029;-68
2022/03/30 08:17:29;;;;;;;6.90;6.60;;;;;;;19.46;32.76;99697.25;5036645;28;20021;-67
2022/03/30 08:19:57;;;;;;;6.75;6.45;;;;;;;20.02;31.94;99692.41;5032959;28;20025;-67
2022/03/30 08:22:26;;;;;;;7.10;6.80;;;;;;;20.00;31.76;99691.84;5035892;28;20112;-67
2022/03/30 08:24:53;;;;;;;6.80;6.50;;;;;;;19.86;32.22;99694.16;5039035;28;20468;-67
2022/03/30 08:27:22;;;;;;;6.65;6.35;;;;;;;20.35;31.53;99696.72;5027721;28;20032;-67
2022/03/30 08:29:48;;;;;;;6.97;6.68;;;;;;;20.09;31.77;99695.69;5031311;28;20523;-66
2022/03/30 08:32:16;;;;;;;6.75;6.45;;;;;;;20.75;30.95;99689.13;5031624;28;20033;-66
2022/03/30 08:34:42;;;;;;;6.85;6.55;;;;;;;20.47;30.95;99690.31;5034345;28;20465;-66
2022/03/30 08:37:08;;;;;;;6.80;6.50;;;;;;;20.39;31.12;99695.09;5035813;28;20026;-66
2022/03/30 08:39:35;;;;;;;6.90;6.60;;;;;;;20.51;30.96;99686.06;5033524;28;20026;-66
2022/03/30 08:42:05;;;;;;;6.72;6.43;;;;;;;21.78;29.52;99695.41;5039428;28;20112;-65
2022/03/30 08:44:33;;;;;;;7.18;6.88;;;;;;;22.15;29.09;99693.56;5033713;28;20108;-66
2022/03/30 08:46:59;;;;;;;6.82;6.53;;;;;;;19.52;32.21;99684.66;5034530;28;20018;-66
2022/03/30 08:49:26;;;;;;;6.93;6.63;;;;;;;21.13;30.67;99685.25;5035962;28;20029;-66
2022/03/30 08:51:52;;;;;;;7.18;6.88;;;;;;;21.87;29.22;99684.88;5037291;28;20148;-66
2022/03/30 08:54:19;;;;;;;7.10;6.80;;;;;;;21.88;28.90;99678.41;5028882;28;20560;-66
2022/03/30 08:56:46;;;;;;;7.47;7.18;;;;;;;21.28;29.74;99673.72;5027100;28;20062;-66
2022/03/30 08:59:17;;;;;;;7.28;6.97;;;;;;;21.87;29.15;99678.69;5027689;28;20149;-66
2022/03/30 09:01:43;;;;;;;7.20;6.90;;;;;;;22.02;28.24;99678.69;5032176;28;20037;-67
2022/03/30 09:04:12;;;;;;;7.40;7.10;;;;;;;22.19;28.06;99671.16;5030095;28;20029;-67
2022/03/30 09:06:55;;;;;;;7.00;6.70;;;;;;;22.33;27.71;99664.09;5027692;28;20037;-65
2022/03/30 09:09:33;;;;;;;6.82;6.53;;;;;;;22.45;27.72;99652.97;5029806;28;20087;-65
2022/03/30 09:12:00;;;;;;;7.00;6.70;;;;;;;22.03;27.98;99650.59;5035023;28;20108;-66
2022/03/30 09:14:31;;;;;;;7.00;6.70;;;;;;;22.40;27.27;99649.47;5031610;28;20091;-65
2022/03/30 09:17:08;;;;;;;6.70;6.40;;;;;;;22.40;26.48;99653.03;5036877;28;20029;-65
2022/03/30 09:19:39;;;;;;;7.15;6.85;;;;;;;22.08;26.78;99645.22;5031995;28;20025;-65
2022/03/30 09:22:07;;;;;;;7.03;6.72;;;;;;;22.41;25.68;99630.31;5033756;28;20477;-65
2022/03/30 09:24:35;;;;;;;7.05;6.75;;;;;;;22.66;25.02;99637.53;5038042;28;20083;-65
2022/03/30 09:27:02;;;;;;;7.50;7.20;;;;;;;22.51;25.16;99635.69;5035824;28;20098;-65
2022/03/30 09:29:33;;;;;;;6.90;6.60;;;;;;;23.41;24.17;99627.41;5032518;28;20032;-66
2022/03/30 09:32:03;;;;;;;7.00;6.70;;;;;;;23.91;23.53;99628.13;5029127;28;20117;-65
2022/03/30 09:34:51;;;;;;;7.15;6.85;;;;;;;23.32;23.88;99626.41;5031003;28;20508;-65
2022/03/30 09:37:17;;;;;;;7.00;6.70;;;;;;;24.09;23.50;99621.22;5039845;28;20041;-64
2022/03/30 09:39:43;;;;;;;7.50;7.20;;;;;;;23.84;23.51;99614.13;5031773;28;20034;-65
2022/03/30 09:42:10;;;;;;;6.90;6.60;;;;;;;22.49;23.90;99607.31;5040231;28;20123;-65
2022/03/30 09:44:48;;;;;;;6.90;6.60;;;;;;;21.89;24.31;99600.94;5035798;28;20083;-64
2022/03/30 09:47:14;;;;;;;6.93;6.63;;;;;;;21.86;24.19;99598.75;5031094;28;20635;-65
2022/03/30 09:49:49;;;;;;;7.35;7.05;;;;;;;22.58;24.18;99601.06;5027432;28;20077;-64
2022/03/30 09:52:19;;;;;;;7.22;6.93;;;;;;;22.68;23.33;99593.97;5034278;28;20031;-65
2022/03/30 09:54:53;;;;;;;7.10;6.80;;;;;;;23.03;23.11;99599.25;5029886;28;20119;-65
2022/03/30 09:57:18;;;;;;;;;;;;;;;21.96;23.78;99596.03;5035784;28;20048;-64
2022/03/30 10:00:07;;;;;;;6.78;6.47;;;;;;;22.68;23.40;99592.09;5031449;28;20304;-65
2022/03/30 10:02:38;;;;;;;6.95;6.65;;;;;;;23.28;22.70;99586.63;5037368;28;20025;-64
2022/03/30 10:05:05;;;;;;;7.00;6.70;;;;;;;22.30;23.16;99588.97;5034333;28;20488;-64
2022/03/30 10:07:32;;;;;;;7.20;6.90;;;;;;;22.25;23.54;99586.28;5027084;28;20037;-65
2022/03/30 10:09:59;;;;;;;7.20;6.90;;;;;;;23.00;22.60;99578.16;5026367;28;20029;-65
2022/03/30 10:12:26;;;;;;;6.72;6.43;;;;;;;23.05;22.60;99569.19;5028760;28;20052;-65
2022/03/30 10:14:54;;;;;;;7.10;6.80;;;;;;;23.39;22.36;99569.25;5027712;28;20393;-65
2022/03/30 10:17:20;;;;;;;7.15;6.85;;;;;;;22.77;22.92;99568.81;5030922;28;20425;-66
2022/03/30 10:19:46;;;;;;;6.60;6.30;;;;;;;22.43;23.53;99565.97;5042410;28;20384;-65
2022/03/30 10:22:18;;;;;;;6.80;6.50;;;;;;;22.34;23.48;99560.34;5034596;28;20480;-65
2022/03/30 10:25:04;;;;;;;6.90;6.60;;;;;;;22.89;22.56;99558.47;5041037;28;20074;-65
2022/03/30 10:27:55;;;;;;;6.85;6.55;;;;;;;22.81;22.92;99550.94;5037415;28;20041;-65
2022/03/30 10:30:31;;;;;;;7.07;6.78;;;;;;;23.01;23.00;99549.22;5032278;28;20045;-65
2022/03/30 10:32:59;;;;;;;6.55;6.25;;;;;;;23.09;22.60;99545.94;5020848;28;20037;-65
2022/03/30 10:35:42;;;;;;;6.97;6.68;;;;;;;23.11;22.39;99547.25;5028262;28;20064;-66
2022/03/30 10:38:10;;;;;;;6.75;6.45;;;;;;;22.96;22.64;99543.84;5033903;28;20082;-65
2022/03/30 10:40:37;;;;;;;7.30;7.00;;;;;;;22.92;22.65;99535.50;5037349;28;20020;-65
2022/03/30 10:43:08;;;;;;;6.78;6.47;;;;;;;22.79;22.71;99536.88;5038547;28;20123;-65
2022/03/30 10:45:50;;;;;;;7.00;6.70;;;;;;;22.26;22.94;99530.38;5046666;28;20032;-65
2022/03/30 10:48:20;;;;;;;7.35;7.05;;;;;;;22.34;23.92;99543.31;5035555;28;20026;-65
2022/03/30 10:50:58;;;;;;;7.20;6.90;;;;;;;22.80;22.55;99530.38;5050026;28;20078;-65
2022/03/30 10:53:29;;;;;;;7.10;6.80;;;;;;;22.73;22.99;99532.59;5030450;28;20479;-65
2022/03/30 10:56:15;;;;;;;6.70;6.40;;;;;;;22.65;22.45;99533.16;5030048;28;20033;-66
2022/03/30 10:58:50;;;;;;;7.20;6.90;;;;;;;22.81;22.64;99532.00;5030343;28;20026;-65
2022/03/30 11:01:31;;;;;;;7.13;6.82;;;;;;;23.09;22.03;99521.56;5036428;28;20115;-65
2022/03/30 11:04:17;;;;;;;7.70;7.40;;;;;;;22.98;22.50;99518.13;5040002;28;20037;-65
2022/03/30 11:07:06;;;;;;;6.93;6.63;;;;;;;22.64;22.78;99518.03;5030486;28;20021;-65
2022/03/30 11:09:33;;;;;;;6.72;6.43;;;;;;;22.68;22.14;99500.16;5031695;28;20091;-65
2022/03/30 11:12:09;;;;;;;7.00;6.70;;;;;;;22.69;22.12;99498.25;5038812;28;20103;-64
2022/03/30 11:14:43;;;;;;;7.10;6.80;;;;;;;22.57;22.18;99495.91;5026961;28;20037;-65
2022/03/30 11:17:10;;;;;;;6.80;6.50;;;;;;;22.40;22.66;99492.75;5030070;28;20091;-64
2022/03/30 11:19:48;;;;;;;7.43;7.13;;;;;;;22.61;22.52;99486.94;5031087;28;20128;-65
2022/03/30 11:22:15;;;;;;;6.90;6.60;;;;;;;22.64;22.84;99485.59;5028577;28;20096;-65
2022/03/30 11:24:42;;;;;;;7.00;6.70;;;;;;;22.98;22.50;99488.38;5039852;28;20025;-65
2022/03/30 11:27:08;;;;;;;7.00;6.70;;;;;;;23.08;21.84;99490.22;5030588;28;20030;-64
2022/03/30 11:29:54;;;;;;;6.90;6.60;;;;;;;23.08;22.00;99479.38;5042837;28;20807;-64
2022/03/30 11:32:19;;;;;;;7.00;6.70;;;;;;;23.00;21.91;99485.41;5041775;28;20032;-70
2022/03/30 11:34:52;;;;;;;6.90;6.60;;;;;;;23.00;21.34;99485.41;5043454;28;20026;-65
2022/03/30 11:37:19;;;;;;;6.90;6.60;;;;;;;23.61;20.67;99482.19;5033850;28;20052;-64
2022/03/30 11:39:45;;;;;;;6.80;6.50;;;;;;;22.95;20.53;99470.00;5032647;28;20476;-65
2022/03/30 11:42:11;;;;;;;7.15;6.85;;;;;;;22.78;20.10;99483.09;5036126;28;20033;-66
2022/03/30 11:47:24;;;;;;;6.90;6.60;;;;;;;22.53;20.25;99467.81;5047416;28;20400;-65
2022/03/30 11:49:57;;;;;;;7.40;7.10;;;;;;;22.82;20.65;99467.91;5050337;28;20056;-65